UAAH/BXH METAR and TAF weather

Enter ICAO airport designator
Station Type Date Time Source
UAAH METAR 2020/07/05 04:30 UTC NOAA

UAAH 050430Z 03003MPS 330V070 CAVOK 24/11 Q1008 R05/0///60 NOSIG RMK QFE719/0959


Station Type Date Time Source
UAAH Decoded METAR 2020/07/05 04:30 UTC NOAA

Station name not available
Jul 05, 2020 - 12:30 AM EDT / 2020.07.05 0430 UTC
Wind: from the NNE (030 degrees) at 7 MPH (6 KT) (direction variable):0
Visibility: greater than 7 mile(s):0
Temperature: 75 F (24 C)
Dew Point: 51 F (11 C)
Relative Humidity: 43%
Pressure (altimeter): 29.77 in. Hg (1008 hPa)
ob: UAAH 050430Z 03003MPS 330V070 CAVOK 24/11 Q1008 R05/0///60 NOSIG RMK QFE719/0959
cycle: 4

Station Type Date Time Source
UAAH TAF 2016/09/21 12:09 UTC NOAA

TAF
AMD TAF
AMD UAAH 211506Z 2112/2124 36006MPS CAVOK

Example: see airport list